sensor_id;sensor_type;location;lat;lon;timestamp;pressure;altitude;pressure_sealevel;temperature;humidity
12073;BME280;6098;49.004;8.372;2022-12-07T00:12:18;100598.83;;;5.78;92.29
12073;BME280;6098;49.004;8.372;2022-12-07T00:27:10;100586.61;;;5.73;92.77
12073;BME280;6098;49.004;8.372;2022-12-07T00:42:02;100593.69;;;5.70;93.17
12073;BME280;6098;49.004;8.372;2022-12-07T00:56:51;100590.20;;;5.67;93.25
12073;BME280;6098;49.004;8.372;2022-12-07T01:11:42;100575.84;;;5.62;93.43
12073;BME280;6098;49.004;8.372;2022-12-07T01:26:33;100577.64;;;5.58;93.37
12073;BME280;6098;49.004;8.372;2022-12-07T01:41:24;100589.63;;;5.50;93.49
12073;BME280;6098;49.004;8.372;2022-12-07T01:56:19;100592.31;;;5.47;93.71
12073;BME280;6098;49.004;8.372;2022-12-07T02:11:08;100583.11;;;5.45;93.86
12073;BME280;6098;49.004;8.372;2022-12-07T02:41:13;100584.53;;;5.38;94.83
12073;BME280;6098;49.004;8.372;2022-12-07T03:26:38;100521.95;;;5.34;95.08
12073;BME280;6098;49.004;8.372;2022-12-07T03:41:32;100540.55;;;5.22;94.22
12073;BME280;6098;49.004;8.372;2022-12-07T03:56:24;100544.56;;;5.15;94.36
12073;BME280;6098;49.004;8.372;2022-12-07T04:11:15;100532.83;;;5.10;94.98
12073;BME280;6098;49.004;8.372;2022-12-07T04:26:06;100528.48;;;5.09;94.67
12073;BME280;6098;49.004;8.372;2022-12-07T04:40:57;100530.64;;;5.11;94.09
12073;BME280;6098;49.004;8.372;2022-12-07T04:55:49;100527.98;;;5.12;94.05
12073;BME280;6098;49.004;8.372;2022-12-07T05:10:40;100524.07;;;5.10;93.32
12073;BME280;6098;49.004;8.372;2022-12-07T05:25:31;100530.69;;;5.06;92.80
12073;BME280;6098;49.004;8.372;2022-12-07T05:40:21;100535.92;;;5.08;92.74
12073;BME280;6098;49.004;8.372;2022-12-07T05:55:13;100525.35;;;5.12;93.14
12073;BME280;6098;49.004;8.372;2022-12-07T06:10:05;100532.33;;;5.13;92.63
12073;BME280;6098;49.004;8.372;2022-12-07T06:24:56;100536.36;;;5.09;92.19
12073;BME280;6098;49.004;8.372;2022-12-07T06:39:51;100527.23;;;5.02;91.69
12073;BME280;6098;49.004;8.372;2022-12-07T06:54:43;100532.94;;;5.03;91.14
12073;BME280;6098;49.004;8.372;2022-12-07T07:09:33;100540.41;;;5.01;91.19
12073;BME280;6098;49.004;8.372;2022-12-07T07:24:25;100540.33;;;5.07;90.35
12073;BME280;6098;49.004;8.372;2022-12-07T07:39:18;100536.33;;;5.10;90.00
12073;BME280;6098;49.004;8.372;2022-12-07T07:54:09;100553.45;;;5.07;89.21
12073;BME280;6098;49.004;8.372;2022-12-07T08:09:02;100562.59;;;5.10;87.51
12073;BME280;6098;49.004;8.372;2022-12-07T08:23:52;100578.34;;;5.13;85.26
12073;BME280;6098;49.004;8.372;2022-12-07T08:38:44;100593.09;;;5.21;84.83
12073;BME280;6098;49.004;8.372;2022-12-07T08:53:37;100588.30;;;5.19;83.67
12073;BME280;6098;49.004;8.372;2022-12-07T09:08:26;100589.44;;;5.32;83.12
12073;BME280;6098;49.004;8.372;2022-12-07T09:23:21;100588.83;;;5.43;81.93
12073;BME280;6098;49.004;8.372;2022-12-07T09:38:12;100596.58;;;5.54;81.42
12073;BME280;6098;49.004;8.372;2022-12-07T09:53:12;100599.15;;;5.57;79.62
12073;BME280;6098;49.004;8.372;2022-12-07T10:08:04;100571.18;;;5.79;78.92
12073;BME280;6098;49.004;8.372;2022-12-07T10:22:58;100564.61;;;5.79;77.81
12073;BME280;6098;49.004;8.372;2022-12-07T10:37:46;100557.56;;;5.81;77.43
12073;BME280;6098;49.004;8.372;2022-12-07T11:08:01;100529.94;;;5.84;77.64
12073;BME280;6098;49.004;8.372;2022-12-07T11:53:02;100479.58;;;6.04;79.60
12073;BME280;6098;49.004;8.372;2022-12-07T12:08:15;100474.09;;;6.16;79.41
12073;BME280;6098;49.004;8.372;2022-12-07T12:23:12;100456.84;;;6.23;79.80
12073;BME280;6098;49.004;8.372;2022-12-07T12:38:30;100447.03;;;6.31;80.25
12073;BME280;6098;49.004;8.372;2022-12-07T12:53:26;100441.77;;;6.31;79.71
12073;BME280;6098;49.004;8.372;2022-12-07T13:08:20;100429.53;;;6.27;80.48
12073;BME280;6098;49.004;8.372;2022-12-07T13:23:09;100418.64;;;6.24;80.76
12073;BME280;6098;49.004;8.372;2022-12-07T13:38:13;100402.48;;;6.21;80.91
12073;BME280;6098;49.004;8.372;2022-12-07T13:53:00;100397.14;;;6.24;81.28
12073;BME280;6098;49.004;8.372;2022-12-07T14:22:55;100398.54;;;6.21;79.90
12073;BME280;6098;49.004;8.372;2022-12-07T14:37:46;100397.22;;;6.20;79.69
12073;BME280;6098;49.004;8.372;2022-12-07T14:52:35;100406.91;;;6.18;79.43
12073;BME280;6098;49.004;8.372;2022-12-07T15:07:25;100398.22;;;6.15;79.92
12073;BME280;6098;49.004;8.372;2022-12-07T15:22:16;100391.28;;;6.11;80.22
12073;BME280;6098;49.004;8.372;2022-12-07T15:37:07;100388.40;;;6.03;80.64
12073;BME280;6098;49.004;8.372;2022-12-07T15:51:57;100376.20;;;5.97;81.13
12073;BME280;6098;49.004;8.372;2022-12-07T16:06:48;100358.89;;;5.87;82.20
12073;BME280;6098;49.004;8.372;2022-12-07T16:21:39;100343.70;;;5.77;82.24
12073;BME280;6098;49.004;8.372;2022-12-07T16:36:28;100357.48;;;5.68;82.00
12073;BME280;6098;49.004;8.372;2022-12-07T16:51:18;100344.30;;;5.70;82.73
12073;BME280;6098;49.004;8.372;2022-12-07T17:21:12;100317.75;;;5.60;83.92
12073;BME280;6098;49.004;8.372;2022-12-07T17:36:09;100305.95;;;5.59;83.90
12073;BME280;6098;49.004;8.372;2022-12-07T17:50:52;100298.91;;;5.60;83.77
12073;BME280;6098;49.004;8.372;2022-12-07T18:06:06;100287.19;;;5.56;83.23
12073;BME280;6098;49.004;8.372;2022-12-07T18:20:57;100292.56;;;5.50;83.63
12073;BME280;6098;49.004;8.372;2022-12-07T18:35:47;100276.57;;;5.39;83.60
12073;BME280;6098;49.004;8.372;2022-12-07T18:50:37;100277.63;;;5.29;83.75
12073;BME280;6098;49.004;8.372;2022-12-07T19:05:27;100275.63;;;5.19;84.26
12073;BME280;6098;49.004;8.372;2022-12-07T19:20:17;100280.17;;;5.10;85.08
12073;BME280;6098;49.004;8.372;2022-12-07T19:35:09;100280.82;;;4.98;85.27
12073;BME280;6098;49.004;8.372;2022-12-07T19:49:59;100269.20;;;4.86;85.26
12073;BME280;6098;49.004;8.372;2022-12-07T20:04:50;100258.93;;;4.74;85.58
12073;BME280;6098;49.004;8.372;2022-12-07T20:19:40;100255.66;;;4.60;86.52
12073;BME280;6098;49.004;8.372;2022-12-07T20:34:31;100244.91;;;4.50;87.38
12073;BME280;6098;49.004;8.372;2022-12-07T20:49:22;100235.84;;;4.43;87.74
12073;BME280;6098;49.004;8.372;2022-12-07T21:04:13;100217.22;;;4.30;88.34
12073;BME280;6098;49.004;8.372;2022-12-07T21:19:03;100223.59;;;4.15;88.79
12073;BME280;6098;49.004;8.372;2022-12-07T21:33:53;100228.08;;;4.08;88.69
12073;BME280;6098;49.004;8.372;2022-12-07T22:03:33;100198.72;;;3.85;89.19
12073;BME280;6098;49.004;8.372;2022-12-07T22:18:26;100205.44;;;3.73;89.60
12073;BME280;6098;49.004;8.372;2022-12-07T22:33:15;100197.68;;;3.66;89.94
12073;BME280;6098;49.004;8.372;2022-12-07T22:48:05;100189.48;;;3.57;90.39
12073;BME280;6098;49.004;8.372;2022-12-07T23:02:55;100185.22;;;3.50;91.24
12073;BME280;6098;49.004;8.372;2022-12-07T23:17:45;100170.01;;;3.44;91.55
12073;BME280;6098;49.004;8.372;2022-12-07T23:32:35;100152.24;;;3.36;91.69
12073;BME280;6098;49.004;8.372;2022-12-07T23:47:30;100140.94;;;3.31;91.54
